»·PEaware :: SWA5842 KELP-KABQ

SWA5842 :: KELP-KABQ

FLIGHT INFORMATION

Flight Status: Arrived
Operator:
Southwest Airlines
More flights by this operator :: More flights under this callsign
Pilot: Alex K. (14822)
Aircraft: BOEING 737-200
(B732)
More flights by this aircraft type
Origin: KELP El Paso Intl
United States
Destination: KABQ Albuquerque Intl Sunport
United States
More flights between these airports :: More routes between these airports
Route: RUTER TCS J13 ABQ
File this flight plan on PilotEdge
Remarks: PBN / A1B2 NAV / RNVD1E2A1 DAT / V DOF / 180111 REG / N275SB RMK / NRP SIMBRIEF MARCUS
Altitude:
(Current/Filed)
22,000ft
Speed:
(Current/Filed)
400kts
Departed: 10-Jan-18 07:26 PM
Arrived: 10-Jan-18 08:47 PM
Distance/Time
Traveled:
195nm/1:21
Distance/Time
To Go:
Arrived

Flight Plot

Page will automatically refresh every two minutes.

Flight plan parsing failed; only flown route is shown


Map Options




Map Legend


Flown Route
Filed Route
Departure Airport
Arrival Airport
Navaid (VOR, NDB)
Fix

Horizontal Profiles

Position Reports

Time Latitude Longitude Heading Altitude Ground
Speed
10-Jan-18 19:06 31.800524 -106.392505 312 3926ft 0kts
10-Jan-18 19:07 31.800523 -106.392505 313 3926ft 0kts
10-Jan-18 19:08 31.800523 -106.392505 313 3926ft 0kts
10-Jan-18 19:09 31.800524 -106.392505 313 3926ft 0kts
10-Jan-18 19:10 31.800524 -106.392505 312 3926ft 0kts
10-Jan-18 19:11 31.800524 -106.392505 312 3926ft 0kts
10-Jan-18 19:12 31.800523 -106.392505 313 3926ft 0kts
10-Jan-18 19:13 31.800524 -106.392505 312 3926ft 0kts
10-Jan-18 19:14 31.800523 -106.392505 312 3926ft 0kts
10-Jan-18 19:15 31.800523 -106.392505 313 3926ft 0kts
10-Jan-18 19:16 31.800523 -106.392505 313 3926ft 0kts
10-Jan-18 19:17 31.800523 -106.392505 312 3926ft 0kts
10-Jan-18 19:18 31.800282 -106.392196 313 3926ft 2kts
10-Jan-18 19:19 31.799798 -106.391864 13 3926ft 2kts
10-Jan-18 19:20 31.799535 -106.392152 66 3926ft 0kts
10-Jan-18 19:21 31.799535 -106.392151 66 3926ft 0kts
10-Jan-18 19:22 31.799535 -106.392151 66 3926ft 0kts
10-Jan-18 19:23 31.799549 -106.392113 65 3926ft 0kts
10-Jan-18 19:24 31.800033 -106.389815 113 3927ft 15kts
10-Jan-18 19:25 31.799927 -106.383426 89 3939ft 24kts
10-Jan-18 19:26 31.799745 -106.375684 93 3948ft 21kts
10-Jan-18 19:27 31.799443 -106.369384 89 3957ft 16kts
10-Jan-18 19:28 31.799187 -106.364503 91 3958ft 15kts
10-Jan-18 19:29 31.799591 -106.360489 4 3949ft 0kts
10-Jan-18 19:30 31.799591 -106.360489 3 3949ft 0kts
10-Jan-18 19:31 31.800698 -106.361069 272 3950ft 18kts
10-Jan-18 19:32 31.798624 -106.393929 226 5067ft 160kts
10-Jan-18 19:33 31.744752 -106.381126 162 6794ft 253kts
10-Jan-18 19:34 31.710560 -106.309892 98 7107ft 276kts
10-Jan-18 19:35 31.713085 -106.220958 56 6691ft 270kts
10-Jan-18 19:36 31.771519 -106.200481 343 6582ft 213kts
10-Jan-18 19:37 31.796424 -106.242662 265 6072ft 151kts
10-Jan-18 19:38 31.796884 -106.287725 274 5128ft 131kts
10-Jan-18 19:39 31.799196 -106.330818 269 4567ft 134kts
10-Jan-18 19:40 31.801215 -106.372383 272 3951ft 104kts
10-Jan-18 19:41 31.800831 -106.385038 183 3936ft 12kts
10-Jan-18 19:42 31.800643 -106.385050 184 3936ft 0kts
10-Jan-18 19:43 31.800639 -106.385094 254 3936ft 3kts
10-Jan-18 19:44 31.800638 -106.385106 261 3936ft 0kts
10-Jan-18 19:45 31.800638 -106.385106 261 3936ft 0kts
10-Jan-18 19:46 31.800638 -106.385106 261 3936ft 0kts
10-Jan-18 19:47 31.800638 -106.385110 261 3936ft 0kts
10-Jan-18 19:48 31.800320 -106.385086 168 3936ft 3kts
10-Jan-18 19:49 31.799904 -106.386011 270 3934ft 7kts
10-Jan-18 19:50 31.799882 -106.388534 268 3929ft 7kts
10-Jan-18 19:51 31.799870 -106.391081 270 3926ft 7kts
10-Jan-18 19:52 31.800527 -106.392525 314 3926ft 2kts
10-Jan-18 19:53 31.800550 -106.392551 314 3926ft 0kts
10-Jan-18 19:54 31.800550 -106.392551 314 3926ft 0kts
10-Jan-18 19:55 31.800550 -106.392551 314 3926ft 0kts
10-Jan-18 19:56 31.800550 -106.392551 314 3926ft 0kts
10-Jan-18 19:57 31.800550 -106.392551 314 3926ft 0kts
10-Jan-18 19:58 31.800550 -106.392551 314 3926ft 0kts
10-Jan-18 19:59 31.800550 -106.392551 314 3926ft 0kts
10-Jan-18 20:00 31.800550 -106.392551 314 3926ft 0kts
10-Jan-18 20:01 31.800384 -106.392348 314 3926ft 2kts
10-Jan-18 20:02 31.799924 -106.391908 355 3926ft 2kts
10-Jan-18 20:03 31.799560 -106.392196 66 3926ft 0kts
10-Jan-18 20:04 31.799560 -106.392196 66 3926ft 0kts
10-Jan-18 20:05 31.799730 -106.391778 63 3926ft 7kts
10-Jan-18 20:06 31.799906 -106.385597 89 3935ft 27kts
10-Jan-18 20:07 31.799790 -106.376268 92 3947ft 30kts
10-Jan-18 20:08 31.799268 -106.365990 93 3959ft 33kts
10-Jan-18 20:09 31.800645 -106.360711 291 3950ft 12kts
10-Jan-18 20:10 31.802249 -106.391007 259 4625ft 151kts
10-Jan-18 20:11 31.759774 -106.383533 128 7031ft 265kts
10-Jan-18 20:12 31.776423 -106.307831 13 10330ft 266kts
10-Jan-18 20:13 31.838618 -106.331804 320 12604ft 274kts
10-Jan-18 20:14 31.908194 -106.382963 326 14873ft 304kts
10-Jan-18 20:15 31.982192 -106.432210 327 17026ft 313kts
10-Jan-18 20:16 32.059211 -106.482098 328 18884ft 321kts
10-Jan-18 20:17 32.136832 -106.531733 328 20459ft 329kts
10-Jan-18 20:18 32.217897 -106.583556 328 21856ft 338kts
10-Jan-18 20:19 32.303944 -106.639359 328 21939ft 374kts
10-Jan-18 20:20 32.394695 -106.698879 328 21945ft 396kts
10-Jan-18 20:21 32.490443 -106.761174 328 21943ft 393kts
10-Jan-18 20:22 32.575131 -106.816242 328 21942ft 397kts
10-Jan-18 20:23 32.670325 -106.878220 328 21937ft 399kts
10-Jan-18 20:24 32.765910 -106.940609 328 21938ft 394kts
10-Jan-18 20:25 32.861031 -107.002854 328 21885ft 391kts
10-Jan-18 20:26 32.954921 -107.064449 328 21880ft 387kts
10-Jan-18 20:27 33.048353 -107.125891 328 21879ft 384kts
10-Jan-18 20:28 33.137490 -107.184410 328 21887ft 384kts
10-Jan-18 20:29 33.230676 -107.245739 328 21886ft 384kts
10-Jan-18 20:30 33.323900 -107.307409 328 21884ft 383kts
10-Jan-18 20:31 33.416017 -107.368580 328 21883ft 381kts
10-Jan-18 20:32 33.508748 -107.430323 328 21882ft 381kts
10-Jan-18 20:33 33.601225 -107.492036 328 21880ft 382kts
10-Jan-18 20:34 33.699915 -107.530477 5 21883ft 405kts
10-Jan-18 20:35 33.803934 -107.474754 14 21880ft 413kts
10-Jan-18 20:36 33.909225 -107.422487 16 21879ft 416kts
10-Jan-18 20:37 34.014402 -107.367483 17 21879ft 417kts
10-Jan-18 20:38 34.112333 -107.315761 16 21883ft 417kts
10-Jan-18 20:39 34.216009 -107.261152 17 20126ft 420kts
10-Jan-18 20:40 34.320434 -107.205590 17 18139ft 405kts
10-Jan-18 20:41 34.421241 -107.151805 17 16127ft 395kts
10-Jan-18 20:42 34.519953 -107.098997 17 14255ft 385kts
10-Jan-18 20:43 34.616511 -107.047400 20 12371ft 380kts
10-Jan-18 20:44 34.711903 -106.996055 21 10859ft 369kts
10-Jan-18 20:45 34.799728 -106.948816 21 10084ft 314kts
10-Jan-18 20:46 34.872465 -106.909486 27 8887ft 270kts
10-Jan-18 20:47 34.934373 -106.862053 30 7968ft 248kts
10-Jan-18 20:48 34.982816 -106.823404 33 8059ft 182kts
10-Jan-18 20:49 35.022965 -106.778784 44 7887ft 213kts
10-Jan-18 20:50 35.045569 -106.725082 86 6662ft 161kts
10-Jan-18 20:51 35.044561 -106.674343 88 5950ft 147kts
10-Jan-18 20:52 35.044406 -106.625358 89 5472ft 145kts
10-Jan-18 20:53 35.044209 -106.594010 79 5328ft 19kts
10-Jan-18 20:54 35.045841 -106.593118 270 5330ft 15kts
10-Jan-18 20:55 35.045748 -106.600406 270 5324ft 27kts
10-Jan-18 20:56 35.045811 -106.609448 271 5321ft 24kts
10-Jan-18 20:57 35.046866 -106.614451 343 5318ft 6kts
10-Jan-18 20:58 35.046926 -106.614477 339 5318ft 0kts

Navigation Log

Ident Type
Flight plan parsing failed, navigation log unavailable